Time,TemperatureF,DewpointF,PressureIn,WindDirection,WindDirectionDegrees,WindSpeedMPH,WindSpeedGustMPH,Humidity,HourlyPrecipIn,Conditions,Clouds,dailyrainin,SoftwareType,DateUTC
2013-02-17 00:01:00,8.1,5.8,29.97,WNW,293,0.0,0.0,90,0.00,,,0.00,LWC V2.11 B50,2013-02-17 05:01:00,
2013-02-17 00:05:00,8.0,5.7,29.97,WNW,293,0.0,0.0,90,0.00,,,0.00,LWC V2.11 B50,2013-02-17 05:05:00,
2013-02-17 00:08:00,8.0,5.7,29.97,WNW,293,0.0,0.0,90,0.00,,,0.00,LWC V2.11 B50,2013-02-17 05:08:00,
2013-02-17 00:13:00,8.0,5.7,29.97,WNW,293,0.0,0.0,90,0.00,,,0.00,LWC V2.11 B50,2013-02-17 05:13:00,
2013-02-17 00:18:00,8.1,5.8,29.97,WNW,293,0.0,0.0,90,0.00,,,0.00,LWC V2.11 B50,2013-02-17 05:18:00,
2013-02-17 00:23:00,8.1,5.8,29.97,WNW,293,0.0,0.0,90,0.00,,,0.00,LWC V2.11 B50,2013-02-17 05:23:00,
2013-02-17 00:28:00,7.9,5.6,29.97,WNW,293,0.0,0.0,90,0.00,,,0.00,LWC V2.11 B50,2013-02-17 05:28:00,
2013-02-17 00:33:00,7.8,5.5,29.97,WNW,293,0.0,0.0,90,0.00,,,0.00,LWC V2.11 B50,2013-02-17 05:33:00,
2013-02-17 00:38:00,7.6,5.3,29.97,WNW,293,0.0,0.0,90,0.00,,,0.00,LWC V2.11 B50,2013-02-17 05:38:00,
2013-02-17 00:43:00,7.2,4.9,29.97,WNW,293,0.0,0.0,90,0.00,,,0.00,LWC V2.11 B50,2013-02-17 05:43:00,
2013-02-17 00:48:00,7.0,4.5,29.97,WNW,293,0.0,0.0,89,0.00,,,0.00,LWC V2.11 B50,2013-02-17 05:48:00,
2013-02-17 00:53:00,6.7,4.4,29.97,WNW,293,0.0,0.0,90,0.00,,,0.00,LWC V2.11 B50,2013-02-17 05:53:00,
2013-02-17 00:58:00,7.0,4.9,29.98,WNW,293,0.0,0.0,91,0.00,,,0.00,LWC V2.11 B50,2013-02-17 05:58:00,
2013-02-17 01:03:00,7.2,5.1,29.97,WNW,293,0.0,0.0,91,0.00,,,0.00,LWC V2.11 B50,2013-02-17 06:03:00,
2013-02-17 01:08:00,7.4,5.3,29.98,WNW,293,0.0,0.0,91,0.00,,,0.00,LWC V2.11 B50,2013-02-17 06:08:00,
2013-02-17 01:13:00,7.7,5.6,29.97,WNW,293,0.0,0.0,91,0.00,,,0.00,LWC V2.11 B50,2013-02-17 06:13:00,
2013-02-17 01:18:00,7.8,5.7,29.98,WNW,293,0.0,0.0,91,0.00,,,0.00,LWC V2.11 B50,2013-02-17 06:18:00,
2013-02-17 01:23:00,8.0,5.9,29.97,WNW,293,0.0,0.0,91,0.00,,,0.00,LWC V2.11 B50,2013-02-17 06:23:00,
2013-02-17 01:28:00,8.2,6.1,29.98,WNW,293,0.0,0.0,91,0.00,,,0.00,LWC V2.11 B50,2013-02-17 06:28:00,
2013-02-17 01:33:00,8.5,6.4,29.98,WNW,293,0.0,0.0,91,0.00,,,0.00,LWC V2.11 B50,2013-02-17 06:33:00,
2013-02-17 01:38:00,8.8,6.7,29.97,WNW,293,0.0,0.0,91,0.00,,,0.00,LWC V2.11 B50,2013-02-17 06:38:00,
2013-02-17 01:43:00,9.2,7.1,29.97,WNW,293,0.0,0.0,91,0.00,,,0.00,LWC V2.11 B50,2013-02-17 06:43:00,
2013-02-17 01:48:00,9.7,7.6,29.97,WNW,293,0.0,0.0,91,0.00,,,0.00,LWC V2.11 B50,2013-02-17 06:48:00,
2013-02-17 01:53:00,10.3,8.2,29.97,NW,326,0.0,0.0,91,0.00,,,0.00,LWC V2.11 B50,2013-02-17 06:53:00,
2013-02-17 01:58:00,10.6,8.5,29.98,NW,326,0.0,0.0,91,0.00,,,0.00,LWC V2.11 B50,2013-02-17 06:58:00,
2013-02-17 02:03:00,10.8,8.7,29.97,North,0,0.0,1.0,91,0.00,,,0.00,LWC V2.11 B50,2013-02-17 07:03:00,
2013-02-17 02:08:00,11.1,9.0,29.98,NNW,327,0.0,0.0,91,0.00,,,0.00,LWC V2.11 B50,2013-02-17 07:08:00,
2013-02-17 02:13:00,11.2,9.1,29.98,NNW,327,0.0,0.0,91,0.00,,,0.00,LWC V2.11 B50,2013-02-17 07:13:00,
2013-02-17 02:18:00,11.3,9.2,29.98,NNW,327,0.0,0.0,91,0.00,,,0.00,LWC V2.11 B50,2013-02-17 07:18:00,
2013-02-17 02:23:00,11.5,9.4,29.98,NNW,327,0.0,0.0,91,0.00,,,0.00,LWC V2.11 B50,2013-02-17 07:23:00,
2013-02-17 02:28:00,11.6,9.2,29.98,NNW,327,0.0,0.0,90,0.00,,,0.00,LWC V2.11 B50,2013-02-17 07:28:00,
2013-02-17 02:33:00,11.6,9.2,29.98,NNW,327,0.0,0.0,90,0.00,,,0.00,LWC V2.11 B50,2013-02-17 07:33:00,
2013-02-17 02:38:00,11.7,9.6,29.98,NE,49,0.0,0.0,91,0.00,,,0.00,LWC V2.11 B50,2013-02-17 07:38:00,
2013-02-17 02:43:00,11.9,9.8,29.98,NE,49,0.0,0.0,91,0.00,,,0.00,LWC V2.11 B50,2013-02-17 07:43:00,
2013-02-17 02:48:00,11.8,9.4,29.98,NE,49,0.0,0.0,90,0.00,,,0.00,LWC V2.11 B50,2013-02-17 07:48:00,
2013-02-17 02:53:00,11.8,9.4,29.98,NE,49,0.0,0.0,90,0.00,,,0.00,LWC V2.11 B50,2013-02-17 07:53:00,
2013-02-17 02:58:00,11.7,9.3,29.98,NE,49,0.0,0.0,90,0.00,,,0.00,LWC V2.11 B50,2013-02-17 07:58:00,
2013-02-17 03:03:00,11.7,9.3,29.98,NE,50,0.0,0.0,90,0.00,,,0.00,LWC V2.11 B50,2013-02-17 08:03:00,
2013-02-17 03:08:00,11.8,9.4,29.98,NE,50,0.0,0.0,90,0.00,,,0.00,LWC V2.11 B50,2013-02-17 08:08:00,
2013-02-17 03:13:00,11.9,9.8,29.98,NE,49,0.0,0.0,91,0.00,,,0.00,LWC V2.11 B50,2013-02-17 08:13:00,
2013-02-17 03:18:00,12.1,10.0,29.98,NE,50,0.0,0.0,91,0.00,,,0.00,LWC V2.11 B50,2013-02-17 08:18:00,
2013-02-17 03:23:00,12.2,10.1,29.98,NE,49,0.0,0.0,91,0.00,,,0.00,LWC V2.11 B50,2013-02-17 08:23:00,
2013-02-17 03:28:00,12.4,10.3,29.98,NE,50,0.0,0.0,91,0.00,,,0.00,LWC V2.11 B50,2013-02-17 08:28:00,
2013-02-17 03:33:00,12.5,10.4,29.98,NE,50,0.0,0.0,91,0.00,,,0.00,LWC V2.11 B50,2013-02-17 08:33:00,
2013-02-17 03:38:00,12.6,10.5,29.98,NE,50,0.0,0.0,91,0.00,,,0.00,LWC V2.11 B50,2013-02-17 08:38:00,
2013-02-17 03:43:00,12.8,10.7,29.98,NE,50,0.0,0.0,91,0.00,,,0.00,LWC V2.11 B50,2013-02-17 08:43:00,
2013-02-17 03:48:00,12.9,10.8,29.98,NE,50,0.0,0.0,91,0.00,,,0.00,LWC V2.11 B50,2013-02-17 08:48:00,
2013-02-17 03:53:00,13.1,11.0,29.98,NE,50,0.0,0.0,91,0.00,,,0.00,LWC V2.11 B50,2013-02-17 08:53:00,
2013-02-17 03:58:00,13.2,11.1,29.98,NE,50,0.0,0.0,91,0.00,,,0.00,LWC V2.11 B50,2013-02-17 08:58:00,
2013-02-17 04:03:00,13.3,11.2,29.98,NE,49,0.0,0.0,91,0.00,,,0.00,LWC V2.11 B50,2013-02-17 09:03:00,
2013-02-17 04:08:00,13.4,11.3,29.98,NE,49,0.0,0.0,91,0.00,,,0.00,LWC V2.11 B50,2013-02-17 09:08:00,
2013-02-17 04:13:00,13.6,11.5,29.98,NE,49,0.0,0.0,91,0.00,,,0.00,LWC V2.11 B50,2013-02-17 09:13:00,
2013-02-17 04:18:00,13.7,11.6,29.98,NE,49,0.0,0.0,91,0.00,,,0.00,LWC V2.11 B50,2013-02-17 09:18:00,
2013-02-17 04:23:00,14.1,12.0,29.99,NE,50,0.0,0.0,91,0.00,,,0.00,LWC V2.11 B50,2013-02-17 09:23:00,
2013-02-17 04:28:00,14.4,12.3,29.99,NE,50,0.0,0.0,91,0.00,,,0.00,LWC V2.11 B50,2013-02-17 09:28:00,
2013-02-17 04:33:00,14.5,12.4,29.99,NE,49,0.0,0.0,91,0.00,,,0.00,LWC V2.11 B50,2013-02-17 09:33:00,
2013-02-17 04:38:00,14.7,12.6,29.99,NE,49,0.0,0.0,91,0.00,,,0.00,LWC V2.11 B50,2013-02-17 09:38:00,
2013-02-17 04:43:00,14.7,12.6,29.99,NE,50,0.0,0.0,91,0.00,,,0.00,LWC V2.11 B50,2013-02-17 09:43:00,
2013-02-17 04:48:00,14.7,12.6,29.99,NE,50,0.0,0.0,91,0.00,,,0.00,LWC V2.11 B50,2013-02-17 09:48:00,
2013-02-17 04:53:00,14.5,12.4,29.99,NE,49,0.0,0.0,91,0.00,,,0.00,LWC V2.11 B50,2013-02-17 09:53:00,
2013-02-17 04:58:00,14.3,12.2,29.99,NE,49,0.0,0.0,91,0.00,,,0.00,LWC V2.11 B50,2013-02-17 09:58:00,
2013-02-17 05:03:00,14.2,12.1,29.99,NE,49,0.0,0.0,91,0.00,,,0.00,LWC V2.11 B50,2013-02-17 10:03:00,
2013-02-17 05:08:00,14.2,12.1,29.99,NE,49,0.0,0.0,91,0.00,,,0.00,LWC V2.11 B50,2013-02-17 10:08:00,
2013-02-17 05:13:00,14.3,12.2,29.99,NE,50,0.0,0.0,91,0.00,,,0.00,LWC V2.11 B50,2013-02-17 10:13:00,
2013-02-17 05:18:00,14.4,12.3,30.00,NE,49,0.0,0.0,91,0.00,,,0.00,LWC V2.11 B50,2013-02-17 10:18:00,
2013-02-17 05:23:00,14.6,12.5,30.00,NE,50,0.0,0.0,91,0.00,,,0.00,LWC V2.11 B50,2013-02-17 10:23:00,
2013-02-17 05:28:00,14.7,12.6,30.00,NNW,331,0.0,0.0,91,0.00,,,0.00,LWC V2.11 B50,2013-02-17 10:28:00,
2013-02-17 05:33:00,14.7,12.6,30.00,NNW,332,0.0,0.0,91,0.00,,,0.00,LWC V2.11 B50,2013-02-17 10:33:00,
2013-02-17 05:38:00,14.4,12.3,30.00,NNW,332,0.0,0.0,91,0.00,,,0.00,LWC V2.11 B50,2013-02-17 10:38:00,
2013-02-17 05:43:00,14.3,12.2,30.00,NNW,332,0.0,0.0,91,0.00,,,0.00,LWC V2.11 B50,2013-02-17 10:43:00,
2013-02-17 05:48:00,14.1,12.0,30.00,NNW,332,0.0,0.0,91,0.00,,,0.00,LWC V2.11 B50,2013-02-17 10:48:00,
2013-02-17 05:53:00,14.0,11.9,30.00,NNW,331,0.0,0.0,91,0.00,,,0.00,LWC V2.11 B50,2013-02-17 10:53:00,
2013-02-17 05:58:00,13.8,11.7,30.00,NW,326,0.0,0.0,91,0.00,,,0.00,LWC V2.11 B50,2013-02-17 10:58:00,
2013-02-17 06:03:00,13.6,11.5,30.01,NNW,327,0.0,0.0,91,0.00,,,0.00,LWC V2.11 B50,2013-02-17 11:03:00,
2013-02-17 06:08:00,13.0,10.9,30.01,NNW,327,0.0,0.0,91,0.00,,,0.00,LWC V2.11 B50,2013-02-17 11:08:00,
2013-02-17 06:13:00,12.6,10.5,30.01,NNW,337,0.0,1.0,91,0.00,,,0.00,LWC V2.11 B50,2013-02-17 11:13:00,
2013-02-17 06:18:00,12.6,10.5,30.01,NNW,337,0.0,0.0,91,0.00,,,0.00,LWC V2.11 B50,2013-02-17 11:18:00,
2013-02-17 06:23:00,12.6,10.5,30.01,NNW,338,0.0,0.0,91,0.00,,,0.00,LWC V2.11 B50,2013-02-17 11:23:00,
2013-02-17 06:28:00,12.6,10.5,30.01,NNW,338,0.0,0.0,91,0.00,,,0.00,LWC V2.11 B50,2013-02-17 11:28:00,
2013-02-17 06:33:00,12.8,10.9,30.01,NNW,338,0.0,0.0,92,0.00,,,0.00,LWC V2.11 B50,2013-02-17 11:33:00,
2013-02-17 06:38:00,13.0,11.1,30.01,NNW,338,0.0,0.0,92,0.00,,,0.00,LWC V2.11 B50,2013-02-17 11:38:00,
2013-02-17 06:43:00,13.0,11.1,30.02,NNW,338,0.0,0.0,92,0.00,,,0.00,LWC V2.11 B50,2013-02-17 11:43:00,
2013-02-17 06:48:00,13.0,10.9,30.02,NW,326,0.0,0.0,91,0.00,,,0.00,LWC V2.11 B50,2013-02-17 11:48:00,
2013-02-17 06:53:00,13.1,11.0,30.02,NW,326,0.0,0.0,91,0.00,,,0.00,LWC V2.11 B50,2013-02-17 11:53:00,
2013-02-17 06:58:00,13.0,10.9,30.02,NW,326,0.0,0.0,91,0.00,,,0.00,LWC V2.11 B50,2013-02-17 11:58:00,
2013-02-17 07:03:00,12.9,10.8,30.02,NW,326,0.0,0.0,91,0.00,,,0.00,LWC V2.11 B50,2013-02-17 12:03:00,
2013-02-17 07:08:00,12.7,10.6,30.02,NW,326,0.0,0.0,91,0.00,,,0.00,LWC V2.11 B50,2013-02-17 12:08:00,
2013-02-17 07:13:00,12.5,10.4,30.03,NW,326,0.0,0.0,91,0.00,,,0.00,LWC V2.11 B50,2013-02-17 12:13:00,
2013-02-17 07:18:00,12.4,10.3,30.03,NW,326,0.0,0.0,91,0.00,,,0.00,LWC V2.11 B50,2013-02-17 12:18:00,
2013-02-17 07:23:00,12.3,10.2,30.03,NW,326,0.0,0.0,91,0.00,,,0.00,LWC V2.11 B50,2013-02-17 12:23:00,
2013-02-17 07:28:00,12.7,10.8,30.03,NW,321,0.0,0.0,92,0.00,,,0.00,LWC V2.11 B50,2013-02-17 12:28:00,
2013-02-17 07:33:00,12.8,10.9,30.03,NW,322,0.0,0.0,92,0.00,,,0.00,LWC V2.11 B50,2013-02-17 12:33:00,
2013-02-17 07:38:00,13.0,11.1,30.04,NW,304,0.0,1.0,92,0.00,,,0.00,LWC V2.11 B50,2013-02-17 12:38:00,
2013-02-17 07:43:00,13.4,11.5,30.03,WNW,291,0.0,0.0,92,0.00,,,0.00,LWC V2.11 B50,2013-02-17 12:43:00,
2013-02-17 07:48:00,13.6,11.7,30.04,NNW,329,0.0,0.0,92,0.00,,,0.00,LWC V2.11 B50,2013-02-17 12:48:00,
2013-02-17 07:53:00,13.7,11.6,30.04,NNW,329,0.0,1.0,91,0.00,,,0.00,LWC V2.11 B50,2013-02-17 12:53:00,
2013-02-17 07:58:00,13.9,11.8,30.04,NNW,330,0.0,0.0,91,0.00,,,0.00,LWC V2.11 B50,2013-02-17 12:58:00,
2013-02-17 08:03:00,14.0,11.9,30.04,NW,316,0.0,1.0,91,0.00,,,0.00,LWC V2.11 B50,2013-02-17 13:03:00,
2013-02-17 08:08:00,14.5,12.6,30.05,NW,317,0.0,0.0,92,0.00,,,0.00,LWC V2.11 B50,2013-02-17 13:08:00,
2013-02-17 08:13:00,15.0,12.9,30.05,NW,315,1.0,1.0,91,0.00,,,0.00,LWC V2.11 B50,2013-02-17 13:13:00,
2013-02-17 08:18:00,15.3,13.2,30.05,WNW,296,0.0,1.0,91,0.00,,,0.00,LWC V2.11 B50,2013-02-17 13:18:00,
2013-02-17 08:23:00,15.6,13.5,30.05,WNW,296,0.0,1.0,91,0.00,,,0.00,LWC V2.11 B50,2013-02-17 13:23:00,
2013-02-17 08:28:00,15.8,13.4,30.05,NW,326,0.0,3.0,90,0.00,,,0.00,LWC V2.11 B50,2013-02-17 13:28:00,
2013-02-17 08:33:00,16.0,13.6,30.05,NW,320,2.0,3.0,90,0.00,,,0.00,LWC V2.11 B50,2013-02-17 13:33:00,
2013-02-17 08:38:00,16.3,13.9,30.05,NNW,327,0.0,3.0,90,0.00,,,0.00,LWC V2.11 B50,2013-02-17 13:38:00,
2013-02-17 08:43:00,16.6,14.2,30.05,NW,305,3.0,3.0,90,0.00,,,0.00,LWC V2.11 B50,2013-02-17 13:43:00,
2013-02-17 08:48:00,16.8,14.1,30.05,NNW,332,1.0,5.0,89,0.00,,,0.00,LWC V2.11 B50,2013-02-17 13:48:00,
2013-02-17 08:53:00,16.8,14.1,30.05,NW,312,1.0,3.0,89,0.00,,,0.00,LWC V2.11 B50,2013-02-17 13:53:00,
2013-02-17 08:58:00,16.8,14.4,30.06,NW,317,0.0,2.0,90,0.00,,,0.00,LWC V2.11 B50,2013-02-17 13:58:00,
2013-02-17 09:03:00,16.8,14.1,30.06,NW,325,1.0,5.0,89,0.00,,,0.00,LWC V2.11 B50,2013-02-17 14:03:00,
2013-02-17 09:08:00,16.8,14.1,30.06,NNW,334,1.0,4.0,89,0.00,,,0.00,LWC V2.11 B50,2013-02-17 14:08:00,
2013-02-17 09:13:00,17.0,14.3,30.06,NW,305,2.0,4.0,89,0.00,,,0.00,LWC V2.11 B50,2013-02-17 14:13:00,
2013-02-17 09:18:00,17.1,14.2,30.06,North,349,3.0,5.0,88,0.00,,,0.00,LWC V2.11 B50,2013-02-17 14:18:00,
2013-02-17 09:23:00,17.4,13.9,30.06,NW,321,4.0,10.0,86,0.00,,,0.00,LWC V2.11 B50,2013-02-17 14:23:00,
2013-02-17 09:28:00,17.3,13.3,30.07,NW,320,5.0,9.0,84,0.00,,,0.00,LWC V2.11 B50,2013-02-17 14:28:00,
2013-02-17 09:33:00,17.3,13.6,30.07,NNW,331,3.0,8.0,85,0.00,,,0.00,LWC V2.11 B50,2013-02-17 14:33:00,
2013-02-17 09:38:00,17.6,13.9,30.07,NNW,328,3.0,8.0,85,0.00,,,0.00,LWC V2.11 B50,2013-02-17 14:38:00,
2013-02-17 09:43:00,17.4,13.7,30.07,NW,309,2.0,9.0,85,0.00,,,0.00,LWC V2.11 B50,2013-02-17 14:43:00,
2013-02-17 09:48:00,17.4,13.7,30.07,NNW,342,9.0,9.0,85,0.00,,,0.00,LWC V2.11 B50,2013-02-17 14:48:00,
2013-02-17 09:53:00,17.1,13.9,30.07,North,1,3.0,7.0,87,0.00,,,0.00,LWC V2.11 B50,2013-02-17 14:53:00,
2013-02-17 09:58:00,16.8,13.6,30.08,NNW,333,3.0,8.0,87,0.00,,,0.00,LWC V2.11 B50,2013-02-17 14:58:00,
2013-02-17 10:03:00,16.7,14.0,30.08,NW,322,8.0,9.0,89,0.00,,,0.00,LWC V2.11 B50,2013-02-17 15:03:00,
2013-02-17 10:08:00,16.6,13.9,30.08,NNE,18,1.0,5.0,89,0.00,,,0.00,LWC V2.11 B50,2013-02-17 15:08:00,
2013-02-17 10:13:00,16.5,13.3,30.08,NW,323,2.0,7.0,87,0.00,,,0.00,LWC V2.11 B50,2013-02-17 15:13:00,
2013-02-17 10:18:00,17.0,14.1,30.08,NW,308,2.0,7.0,88,0.00,,,0.00,LWC V2.11 B50,2013-02-17 15:18:00,
2013-02-17 10:23:00,17.4,14.2,30.08,WNW,296,4.0,6.0,87,0.00,,,0.00,LWC V2.11 B50,2013-02-17 15:23:00,
2013-02-17 10:28:00,17.5,14.3,30.09,NNW,337,3.0,6.0,87,0.00,,,0.00,LWC V2.11 B50,2013-02-17 15:28:00,
2013-02-17 10:33:00,17.5,14.3,30.09,NW,322,6.0,7.0,87,0.00,,,0.00,LWC V2.11 B50,2013-02-17 15:33:00,
2013-02-17 10:38:00,17.2,14.0,30.09,NNE,33,6.0,9.0,87,0.00,,,0.00,LWC V2.11 B50,2013-02-17 15:38:00,
2013-02-17 10:43:00,17.0,14.1,30.09,NW,321,1.0,4.0,88,0.00,,,0.00,LWC V2.11 B50,2013-02-17 15:43:00,
2013-02-17 10:48:00,17.0,14.3,30.09,NW,326,3.0,6.0,89,0.00,,,0.00,LWC V2.11 B50,2013-02-17 15:48:00,
2013-02-17 10:53:00,16.9,14.2,30.10,NW,314,4.0,10.0,89,0.00,,,0.00,LWC V2.11 B50,2013-02-17 15:53:00,
2013-02-17 10:58:00,17.1,14.2,30.10,NW,316,1.0,6.0,88,0.00,,,0.00,LWC V2.11 B50,2013-02-17 15:58:00,
2013-02-17 11:03:00,17.2,14.3,30.10,NW,325,3.0,7.0,88,0.00,,,0.00,LWC V2.11 B50,2013-02-17 16:03:00,
2013-02-17 11:08:00,17.6,14.7,30.10,NW,323,2.0,8.0,88,0.00,,,0.00,LWC V2.11 B50,2013-02-17 16:08:00,
2013-02-17 11:13:00,17.7,14.0,30.10,WNW,302,4.0,9.0,85,0.00,,,0.00,LWC V2.11 B50,2013-02-17 16:13:00,
2013-02-17 11:18:00,17.5,13.5,30.10,WNW,293,5.0,7.0,84,0.00,,,0.00,LWC V2.11 B50,2013-02-17 16:18:00,
2013-02-17 11:23:00,17.6,13.9,30.11,NW,311,3.0,6.0,85,0.00,,,0.00,LWC V2.11 B50,2013-02-17 16:23:00,
2013-02-17 11:28:00,17.5,13.5,30.11,NW,309,4.0,6.0,84,0.00,,,0.00,LWC V2.11 B50,2013-02-17 16:28:00,
2013-02-17 11:33:00,18.0,13.7,30.11,NW,307,3.0,8.0,83,0.00,,,0.00,LWC V2.11 B50,2013-02-17 16:33:00,
2013-02-17 11:38:00,18.8,14.2,30.11,NNW,335,6.0,9.0,82,0.00,,,0.00,LWC V2.11 B50,2013-02-17 16:38:00,
2013-02-17 11:43:00,18.7,12.7,30.11,NW,319,4.0,10.0,77,0.00,,,0.00,LWC V2.11 B50,2013-02-17 16:43:00,
2013-02-17 11:48:00,18.5,12.2,30.11,NNW,328,3.0,6.0,76,0.00,,,0.00,LWC V2.11 B50,2013-02-17 16:48:00,
2013-02-17 11:53:00,18.3,12.3,30.11,WNW,298,8.0,11.0,77,0.00,,,0.00,LWC V2.11 B50,2013-02-17 16:53:00,
2013-02-17 11:58:00,18.2,11.9,30.11,NW,322,6.0,11.0,76,0.00,,,0.00,LWC V2.11 B50,2013-02-17 16:58:00,
2013-02-17 12:03:00,18.2,11.9,30.11,NW,312,7.0,13.0,76,0.00,,,0.00,LWC V2.11 B50,2013-02-17 17:03:00,
2013-02-17 12:08:00,17.9,11.3,30.11,West,273,3.0,11.0,75,0.00,,,0.00,LWC V2.11 B50,2013-02-17 17:08:00,
2013-02-17 12:13:00,18.1,11.8,30.11,WNW,301,5.0,9.0,76,0.00,,,0.00,LWC V2.11 B50,2013-02-17 17:13:00,
2013-02-17 12:18:00,18.1,11.8,30.11,NNW,334,10.0,11.0,76,0.00,,,0.00,LWC V2.11 B50,2013-02-17 17:18:00,
2013-02-17 12:23:00,18.1,11.8,30.11,NNW,340,11.0,16.0,76,0.00,,,0.00,LWC V2.11 B50,2013-02-17 17:23:00,
2013-02-17 12:28:00,17.7,12.6,30.11,NNW,343,8.0,12.0,80,0.00,,,0.00,LWC V2.11 B50,2013-02-17 17:28:00,
2013-02-17 12:33:00,17.2,11.8,30.11,NNW,327,7.0,10.0,79,0.00,,,0.00,LWC V2.11 B50,2013-02-17 17:33:00,
2013-02-17 12:38:00,17.0,12.2,30.11,NNW,335,8.0,12.0,81,0.00,,,0.00,LWC V2.11 B50,2013-02-17 17:38:00,
2013-02-17 12:43:00,16.7,12.5,30.12,WNW,301,4.0,12.0,83,0.00,,,0.00,LWC V2.11 B50,2013-02-17 17:43:00,
2013-02-17 12:48:00,16.6,12.4,30.12,NW,326,3.0,10.0,83,0.00,,,0.00,LWC V2.11 B50,2013-02-17 17:48:00,
2013-02-17 12:53:00,16.5,12.8,30.12,NNW,329,8.0,10.0,85,0.00,,,0.00,LWC V2.11 B50,2013-02-17 17:53:00,
2013-02-17 12:58:00,16.2,12.5,30.12,NNW,334,8.0,13.0,85,0.00,,,0.00,LWC V2.11 B50,2013-02-17 17:58:00,
2013-02-17 13:03:00,16.2,13.0,30.12,NNW,330,7.0,11.0,87,0.00,,,0.00,LWC V2.11 B50,2013-02-17 18:03:00,
2013-02-17 13:08:00,16.3,13.1,30.12,NW,325,6.0,11.0,87,0.00,,,0.00,LWC V2.11 B50,2013-02-17 18:08:00,
2013-02-17 13:13:00,16.2,12.8,30.12,NW,315,6.0,16.0,86,0.00,,,0.00,LWC V2.11 B50,2013-02-17 18:13:00,
2013-02-17 13:18:00,16.8,12.6,30.12,NNW,342,10.0,10.0,83,0.00,,,0.00,LWC V2.11 B50,2013-02-17 18:18:00,
2013-02-17 13:23:00,17.5,13.0,30.12,NNW,345,7.0,11.0,82,0.00,,,0.00,LWC V2.11 B50,2013-02-17 18:23:00,
2013-02-17 13:28:00,17.8,13.0,30.12,NE,46,11.0,13.0,81,0.00,,,0.00,LWC V2.11 B50,2013-02-17 18:28:00,
2013-02-17 13:33:00,18.1,13.5,30.12,NW,305,5.0,9.0,82,0.00,,,0.00,LWC V2.11 B50,2013-02-17 18:33:00,
2013-02-17 13:38:00,17.9,13.9,30.12,NNW,348,10.0,13.0,84,0.00,,,0.00,LWC V2.11 B50,2013-02-17 18:38:00,
2013-02-17 13:43:00,17.3,13.6,30.12,NW,313,4.0,10.0,85,0.00,,,0.00,LWC V2.11 B50,2013-02-17 18:43:00,
2013-02-17 13:48:00,16.5,12.8,30.12,NW,304,4.0,11.0,85,0.00,,,0.00,LWC V2.11 B50,2013-02-17 18:48:00,
2013-02-17 13:53:00,16.1,12.7,30.13,NW,308,3.0,8.0,86,0.00,,,0.00,LWC V2.11 B50,2013-02-17 18:53:00,
2013-02-17 13:58:00,16.1,12.1,30.13,NW,325,6.0,8.0,84,0.00,,,0.00,LWC V2.11 B50,2013-02-17 18:58:00,
2013-02-17 14:03:00,16.4,12.2,30.13,WNW,302,7.0,10.0,83,0.00,,,0.00,LWC V2.11 B50,2013-02-17 19:03:00,
2013-02-17 14:08:00,16.7,12.2,30.13,NW,312,2.0,7.0,82,0.00,,,0.00,LWC V2.11 B50,2013-02-17 19:08:00,
2013-02-17 14:13:00,17.1,12.0,30.13,NW,316,7.0,11.0,80,0.00,,,0.00,LWC V2.11 B50,2013-02-17 19:13:00,
2013-02-17 14:18:00,17.2,11.5,30.13,WNW,301,7.0,10.0,78,0.00,,,0.00,LWC V2.11 B50,2013-02-17 19:18:00,
2013-02-17 14:23:00,17.4,11.2,30.13,WNW,302,4.0,8.0,76,0.00,,,0.00,LWC V2.11 B50,2013-02-17 19:23:00,
2013-02-17 14:28:00,17.1,12.0,30.13,NW,321,7.0,10.0,80,0.00,,,0.00,LWC V2.11 B50,2013-02-17 19:28:00,
2013-02-17 14:33:00,17.7,12.6,30.13,NW,326,7.0,11.0,80,0.00,,,0.00,LWC V2.11 B50,2013-02-17 19:33:00,
2013-02-17 14:38:00,17.9,12.2,30.13,NW,326,5.0,11.0,78,0.00,,,0.00,LWC V2.11 B50,2013-02-17 19:38:00,
2013-02-17 14:43:00,18.0,12.0,30.13,NW,309,3.0,11.0,77,0.00,,,0.00,LWC V2.11 B50,2013-02-17 19:43:00,
2013-02-17 14:48:00,17.3,11.6,30.14,NNW,332,5.0,12.0,78,0.00,,,0.00,LWC V2.11 B50,2013-02-17 19:48:00,
2013-02-17 14:53:00,16.9,11.8,30.14,NNW,336,6.0,14.0,80,0.00,,,0.00,LWC V2.11 B50,2013-02-17 19:53:00,
2013-02-17 14:58:00,16.6,12.1,30.14,NW,305,1.0,7.0,82,0.00,,,0.00,LWC V2.11 B50,2013-02-17 19:58:00,
2013-02-17 15:03:00,16.3,12.3,30.14,NW,305,2.0,6.0,84,0.00,,,0.00,LWC V2.11 B50,2013-02-17 20:03:00,
2013-02-17 15:08:00,16.2,12.5,30.14,NNW,332,3.0,11.0,85,0.00,,,0.00,LWC V2.11 B50,2013-02-17 20:08:00,
2013-02-17 15:13:00,16.0,12.6,30.14,NW,325,5.0,8.0,86,0.00,,,0.00,LWC V2.11 B50,2013-02-17 20:13:00,
2013-02-17 15:18:00,15.9,11.4,30.14,WNW,289,1.0,8.0,82,0.00,,,0.00,LWC V2.11 B50,2013-02-17 20:18:00,
2013-02-17 15:23:00,15.9,10.3,30.14,NNW,335,8.0,8.0,78,0.00,,,0.00,LWC V2.11 B50,2013-02-17 20:23:00,
2013-02-17 15:28:00,16.2,10.0,30.14,NNW,334,2.0,7.0,76,0.00,,,0.00,LWC V2.11 B50,2013-02-17 20:28:00,
2013-02-17 15:33:00,16.6,10.4,30.14,WNW,302,1.0,6.0,76,0.00,,,0.00,LWC V2.11 B50,2013-02-17 20:33:00,
2013-02-17 15:38:00,17.0,10.5,30.14,NW,305,2.0,13.0,75,0.00,,,0.00,LWC V2.11 B50,2013-02-17 20:38:00,
2013-02-17 15:43:00,17.1,10.9,30.15,WNW,301,4.0,12.0,76,0.00,,,0.00,LWC V2.11 B50,2013-02-17 20:43:00,
2013-02-17 15:48:00,17.3,11.1,30.15,NNW,333,6.0,8.0,76,0.00,,,0.00,LWC V2.11 B50,2013-02-17 20:48:00,
2013-02-17 15:54:00,16.8,11.2,30.15,NNW,338,5.0,9.0,78,0.00,,,0.00,LWC V2.11 B50,2013-02-17 20:54:00,
2013-02-17 15:59:00,16.6,11.2,30.15,WNW,294,1.0,6.0,79,0.00,,,0.00,LWC V2.11 B50,2013-02-17 20:59:00,
2013-02-17 16:04:00,16.3,10.7,30.15,NW,304,3.0,8.0,78,0.00,,,0.00,LWC V2.11 B50,2013-02-17 21:04:00,
2013-02-17 16:09:00,16.0,10.1,30.16,WNW,302,3.0,9.0,77,0.00,,,0.00,LWC V2.11 B50,2013-02-17 21:09:00,
2013-02-17 16:14:00,15.9,10.0,30.16,WNW,291,1.0,3.0,77,0.00,,,0.00,LWC V2.11 B50,2013-02-17 21:14:00,
2013-02-17 16:19:00,16.1,10.2,30.16,NNW,340,3.0,7.0,77,0.00,,,0.00,LWC V2.11 B50,2013-02-17 21:19:00,
2013-02-17 16:24:00,16.0,10.4,30.16,WNW,301,3.0,8.0,78,0.00,,,0.00,LWC V2.11 B50,2013-02-17 21:24:00,
2013-02-17 16:29:00,15.8,10.2,30.16,NNW,337,9.0,9.0,78,0.00,,,0.00,LWC V2.11 B50,2013-02-17 21:29:00,
2013-02-17 16:34:00,16.0,10.4,30.16,NW,312,3.0,6.0,78,0.00,,,0.00,LWC V2.11 B50,2013-02-17 21:34:00,
2013-02-17 16:39:00,16.0,11.2,30.16,NW,305,2.0,3.0,81,0.00,,,0.00,LWC V2.11 B50,2013-02-17 21:39:00,
2013-02-17 16:44:00,15.8,11.3,30.16,NW,316,3.0,6.0,82,0.00,,,0.00,LWC V2.11 B50,2013-02-17 21:44:00,
2013-02-17 16:49:00,15.6,11.4,30.17,NW,326,4.0,8.0,83,0.00,,,0.00,LWC V2.11 B50,2013-02-17 21:49:00,
2013-02-17 16:54:00,15.6,11.4,30.17,WNW,292,1.0,1.0,83,0.00,,,0.00,LWC V2.11 B50,2013-02-17 21:54:00,
2013-02-17 16:59:00,15.5,12.3,30.17,WNW,290,5.0,5.0,87,0.00,,,0.00,LWC V2.11 B50,2013-02-17 21:59:00,
2013-02-17 17:04:00,15.3,12.4,30.17,NW,315,0.0,3.0,88,0.00,,,0.00,LWC V2.11 B50,2013-02-17 22:04:00,
2013-02-17 17:09:00,15.3,12.7,30.17,NNW,328,7.0,7.0,89,0.00,,,0.00,LWC V2.11 B50,2013-02-17 22:09:00,
2013-02-17 17:14:00,15.5,12.8,30.17,NW,321,3.0,5.0,89,0.00,,,0.00,LWC V2.11 B50,2013-02-17 22:14:00,
2013-02-17 17:19:00,15.6,12.9,30.17,NW,313,2.0,3.0,89,0.00,,,0.00,LWC V2.11 B50,2013-02-17 22:19:00,
2013-02-17 17:24:00,15.5,12.1,30.17,NW,317,2.0,7.0,86,0.00,,,0.00,LWC V2.11 B50,2013-02-17 22:24:00,
2013-02-17 17:29:00,15.3,10.8,30.18,NW,305,3.0,9.0,82,0.00,,,0.00,LWC V2.11 B50,2013-02-17 22:29:00,
2013-02-17 17:34:00,15.2,11.0,30.18,NW,311,0.0,4.0,83,0.00,,,0.00,LWC V2.11 B50,2013-02-17 22:34:00,
2013-02-17 17:39:00,15.1,10.6,30.18,West,271,1.0,9.0,82,0.00,,,0.00,LWC V2.11 B50,2013-02-17 22:39:00,
2013-02-17 17:44:00,15.0,10.0,30.18,NW,319,5.0,6.0,80,0.00,,,0.00,LWC V2.11 B50,2013-02-17 22:44:00,
2013-02-17 17:49:00,14.7,9.4,30.19,NW,315,3.0,11.0,79,0.00,,,0.00,LWC V2.11 B50,2013-02-17 22:49:00,
2013-02-17 17:54:00,14.5,9.2,30.19,WNW,295,0.0,9.0,79,0.00,,,0.00,LWC V2.11 B50,2013-02-17 22:54:00,
2013-02-17 17:59:00,14.3,9.3,30.19,WNW,285,1.0,2.0,80,0.00,,,0.00,LWC V2.11 B50,2013-02-17 22:59:00,
2013-02-17 18:04:00,14.2,9.5,30.19,NW,305,0.0,4.0,81,0.00,,,0.00,LWC V2.11 B50,2013-02-17 23:04:00,
2013-02-17 18:09:00,14.1,9.6,30.20,West,278,0.0,5.0,82,0.00,,,0.00,LWC V2.11 B50,2013-02-17 23:09:00,
2013-02-17 18:14:00,14.1,9.6,30.20,WNW,301,0.0,4.0,82,0.00,,,0.00,LWC V2.11 B50,2013-02-17 23:14:00,
2013-02-17 18:19:00,14.1,9.9,30.20,WNW,287,0.0,1.0,83,0.00,,,0.00,LWC V2.11 B50,2013-02-17 23:19:00,
2013-02-17 18:24:00,14.1,9.6,30.21,NNW,327,3.0,7.0,82,0.00,,,0.00,LWC V2.11 B50,2013-02-17 23:24:00,
2013-02-17 18:29:00,14.0,9.3,30.21,WNW,296,0.0,5.0,81,0.00,,,0.00,LWC V2.11 B50,2013-02-17 23:29:00,
2013-02-17 18:34:00,14.0,9.3,30.21,NW,305,2.0,6.0,81,0.00,,,0.00,LWC V2.11 B50,2013-02-17 23:34:00,
2013-02-17 18:39:00,13.8,9.3,30.21,WNW,293,3.0,4.0,82,0.00,,,0.00,LWC V2.11 B50,2013-02-17 23:39:00,
2013-02-17 18:44:00,13.8,9.3,30.21,WNW,294,3.0,4.0,82,0.00,,,0.00,LWC V2.11 B50,2013-02-17 23:44:00,
2013-02-17 18:49:00,13.9,9.2,30.21,WNW,293,3.0,10.0,81,0.00,,,0.00,LWC V2.11 B50,2013-02-17 23:49:00,
2013-02-17 18:55:00,14.0,9.5,30.21,WNW,296,2.0,4.0,82,0.00,,,0.00,LWC V2.11 B50,2013-02-17 23:55:00,
2013-02-17 19:00:00,14.0,9.5,30.21,West,277,1.0,7.0,82,0.00,,,0.00,LWC V2.11 B50,2013-02-18 00:00:00,
2013-02-17 19:05:00,14.1,9.6,30.22,NW,317,2.0,7.0,82,0.00,,,0.00,LWC V2.11 B50,2013-02-18 00:05:00,
2013-02-17 19:10:00,14.2,9.7,30.22,WNW,284,2.0,7.0,82,0.00,,,0.00,LWC V2.11 B50,2013-02-18 00:10:00,
2013-02-17 19:15:00,14.3,9.8,30.22,WNW,285,0.0,3.0,82,0.00,,,0.00,LWC V2.11 B50,2013-02-18 00:15:00,
2013-02-17 19:20:00,14.3,9.8,30.22,NNW,336,0.0,2.0,82,0.00,,,0.00,LWC V2.11 B50,2013-02-18 00:20:00,
2013-02-17 19:25:00,14.3,9.8,30.22,NW,313,0.0,3.0,82,0.00,,,0.00,LWC V2.11 B50,2013-02-18 00:25:00,
2013-02-17 19:30:00,14.3,9.8,30.22,WNW,294,1.0,6.0,82,0.00,,,0.00,LWC V2.11 B50,2013-02-18 00:30:00,
2013-02-17 19:35:00,14.1,9.6,30.22,WNW,284,1.0,6.0,82,0.00,,,0.00,LWC V2.11 B50,2013-02-18 00:35:00,
2013-02-17 19:40:00,14.0,9.5,30.22,WNW,285,1.0,6.0,82,0.00,,,0.00,LWC V2.11 B50,2013-02-18 00:40:00,
2013-02-17 19:45:00,13.8,9.3,30.22,NNW,348,3.0,4.0,82,0.00,,,0.00,LWC V2.11 B50,2013-02-18 00:45:00,
2013-02-17 19:50:00,13.6,9.1,30.22,WNW,285,2.0,2.0,82,0.00,,,0.00,LWC V2.11 B50,2013-02-18 00:50:00,
2013-02-17 19:55:00,13.6,9.4,30.22,West,276,3.0,5.0,83,0.00,,,0.00,LWC V2.11 B50,2013-02-18 00:55:00,
2013-02-17 20:00:00,13.6,9.4,30.22,West,267,3.0,6.0,83,0.00,,,0.00,LWC V2.11 B50,2013-02-18 01:00:00,
2013-02-17 20:05:00,13.6,9.4,30.22,West,262,5.0,7.0,83,0.00,,,0.00,LWC V2.11 B50,2013-02-18 01:05:00,
2013-02-17 20:10:00,13.8,9.6,30.23,WNW,284,1.0,6.0,83,0.00,,,0.00,LWC V2.11 B50,2013-02-18 01:10:00,
2013-02-17 20:15:00,14.0,9.8,30.22,North,1,1.0,6.0,83,0.00,,,0.00,LWC V2.11 B50,2013-02-18 01:15:00,
2013-02-17 20:20:00,14.2,9.7,30.23,SW,229,8.0,8.0,82,0.00,,,0.00,LWC V2.11 B50,2013-02-18 01:20:00,
2013-02-17 20:25:00,14.3,9.8,30.22,West,262,1.0,4.0,82,0.00,,,0.00,LWC V2.11 B50,2013-02-18 01:25:00,
2013-02-17 20:30:00,14.4,9.9,30.23,West,276,6.0,8.0,82,0.00,,,0.00,LWC V2.11 B50,2013-02-18 01:30:00,
2013-02-17 20:35:00,14.4,9.9,30.23,WNW,301,0.0,3.0,82,0.00,,,0.00,LWC V2.11 B50,2013-02-18 01:35:00,
2013-02-17 20:40:00,14.5,10.0,30.23,WSW,239,0.0,3.0,82,0.00,,,0.00,LWC V2.11 B50,2013-02-18 01:40:00,
2013-02-17 20:45:00,14.4,9.9,30.23,NW,309,0.0,2.0,82,0.00,,,0.00,LWC V2.11 B50,2013-02-18 01:45:00,
2013-02-17 20:50:00,14.5,9.8,30.23,West,278,0.0,4.0,81,0.00,,,0.00,LWC V2.11 B50,2013-02-18 01:50:00,
2013-02-17 20:55:00,14.5,9.8,30.24,WSW,258,3.0,3.0,81,0.00,,,0.00,LWC V2.11 B50,2013-02-18 01:55:00,
2013-02-17 21:00:00,14.5,9.8,30.24,NW,309,2.0,2.0,81,0.00,,,0.00,LWC V2.11 B50,2013-02-18 02:00:00,
2013-02-17 21:05:00,14.5,9.5,30.24,West,281,0.0,2.0,80,0.00,,,0.00,LWC V2.11 B50,2013-02-18 02:05:00,
2013-02-17 21:10:00,14.5,9.8,30.24,West,270,3.0,8.0,81,0.00,,,0.00,LWC V2.11 B50,2013-02-18 02:10:00,
2013-02-17 21:15:00,14.6,9.6,30.24,NW,309,1.0,7.0,80,0.00,,,0.00,LWC V2.11 B50,2013-02-18 02:15:00,
2013-02-17 21:20:00,14.6,9.6,30.25,WNW,290,1.0,6.0,80,0.00,,,0.00,LWC V2.11 B50,2013-02-18 02:20:00,
2013-02-17 21:25:00,14.6,9.6,30.25,WNW,283,0.0,7.0,80,0.00,,,0.00,LWC V2.11 B50,2013-02-18 02:25:00,
2013-02-17 21:30:00,14.7,9.7,30.25,WNW,282,7.0,8.0,80,0.00,,,0.00,LWC V2.11 B50,2013-02-18 02:30:00,
2013-02-17 21:35:00,14.7,9.7,30.25,WNW,293,1.0,5.0,80,0.00,,,0.00,LWC V2.11 B50,2013-02-18 02:35:00,
2013-02-17 21:40:00,14.7,9.4,30.25,NW,323,0.0,5.0,79,0.00,,,0.00,LWC V2.11 B50,2013-02-18 02:40:00,
2013-02-17 21:45:00,14.7,9.4,30.25,WNW,302,0.0,2.0,79,0.00,,,0.00,LWC V2.11 B50,2013-02-18 02:45:00,
2013-02-17 21:50:00,14.7,9.4,30.25,WNW,293,0.0,1.0,79,0.00,,,0.00,LWC V2.11 B50,2013-02-18 02:50:00,
2013-02-17 21:55:00,14.7,9.4,30.25,WNW,287,2.0,3.0,79,0.00,,,0.00,LWC V2.11 B50,2013-02-18 02:55:00,
2013-02-17 22:00:00,14.7,9.1,30.26,West,264,5.0,5.0,78,0.00,,,0.00,LWC V2.11 B50,2013-02-18 03:00:00,
2013-02-17 22:05:00,14.7,9.1,30.26,WNW,295,3.0,7.0,78,0.00,,,0.00,LWC V2.11 B50,2013-02-18 03:05:00,
2013-02-17 22:10:00,14.8,8.9,30.26,WNW,290,2.0,7.0,77,0.00,,,0.00,LWC V2.11 B50,2013-02-18 03:10:00,
2013-02-17 22:15:00,14.8,9.2,30.26,West,281,4.0,6.0,78,0.00,,,0.00,LWC V2.11 B50,2013-02-18 03:15:00,
2013-02-17 22:20:00,14.7,9.1,30.26,West,270,4.0,6.0,78,0.00,,,0.00,LWC V2.11 B50,2013-02-18 03:20:00,
2013-02-17 22:25:00,14.7,9.1,30.26,WNW,292,0.0,6.0,78,0.00,,,0.00,LWC V2.11 B50,2013-02-18 03:25:00,
2013-02-17 22:30:00,14.5,8.9,30.27,WNW,293,1.0,4.0,78,0.00,,,0.00,LWC V2.11 B50,2013-02-18 03:30:00,
2013-02-17 22:35:00,14.3,9.0,30.27,WNW,283,2.0,4.0,79,0.00,,,0.00,LWC V2.11 B50,2013-02-18 03:35:00,
2013-02-17 22:40:00,14.2,8.9,30.27,WNW,290,3.0,3.0,79,0.00,,,0.00,LWC V2.11 B50,2013-02-18 03:40:00,
2013-02-17 22:45:00,14.1,8.8,30.27,WNW,284,0.0,7.0,79,0.00,,,0.00,LWC V2.11 B50,2013-02-18 03:45:00,
2013-02-17 22:50:00,14.0,8.7,30.28,West,276,0.0,6.0,79,0.00,,,0.00,LWC V2.11 B50,2013-02-18 03:50:00,
2013-02-17 22:55:00,13.7,8.4,30.28,West,277,2.0,3.0,79,0.00,,,0.00,LWC V2.11 B50,2013-02-18 03:55:00,
2013-02-17 23:00:00,13.6,8.6,30.28,WNW,286,0.0,5.0,80,0.00,,,0.00,LWC V2.11 B50,2013-02-18 04:00:00,
2013-02-17 23:05:00,13.5,8.5,30.28,WNW,287,0.0,5.0,80,0.00,,,0.00,LWC V2.11 B50,2013-02-18 04:05:00,
2013-02-17 23:10:00,13.4,8.4,30.28,WNW,300,0.0,5.0,80,0.00,,,0.00,LWC V2.11 B50,2013-02-18 04:10:00,
2013-02-17 23:15:00,13.5,8.2,30.28,WNW,288,0.0,0.0,79,0.00,,,0.00,LWC V2.11 B50,2013-02-18 04:15:00,
2013-02-17 23:20:00,13.2,8.2,30.28,West,271,0.0,2.0,80,0.00,,,0.00,LWC V2.11 B50,2013-02-18 04:20:00,
2013-02-17 23:25:00,13.1,8.1,30.28,West,270,1.0,1.0,80,0.00,,,0.00,LWC V2.11 B50,2013-02-18 04:25:00,
2013-02-17 23:30:00,12.8,7.8,30.28,West,276,0.0,0.0,80,0.00,,,0.00,LWC V2.11 B50,2013-02-18 04:30:00,
2013-02-17 23:35:00,12.1,7.1,30.28,West,276,0.0,0.0,80,0.00,,,0.00,LWC V2.11 B50,2013-02-18 04:35:00,
2013-02-17 23:40:00,11.9,7.5,30.28,West,265,0.0,2.0,82,0.00,,,0.00,LWC V2.11 B50,2013-02-18 04:40:00,
2013-02-17 23:45:00,11.6,6.9,30.28,West,265,0.0,0.0,81,0.00,,,0.00,LWC V2.11 B50,2013-02-18 04:45:00,
2013-02-17 23:50:00,11.0,6.6,30.28,West,265,0.0,0.0,82,0.00,,,0.00,LWC V2.11 B50,2013-02-18 04:50:00,
2013-02-17 23:55:00,10.4,6.3,30.28,WSW,252,0.0,1.0,83,0.00,,,0.00,LWC V2.11 B50,2013-02-18 04:55:00,